sensor_id;sensor_type;location;lat;lon;timestamp;temperature;humidity
8539;DHT22;4307;53.868;11.680;2023-07-31T00:01:53;14.80;99.90
8539;DHT22;4307;53.868;11.680;2023-07-31T00:04:20;14.80;99.90
8539;DHT22;4307;53.868;11.680;2023-07-31T00:06:48;14.80;99.90
8539;DHT22;4307;53.868;11.680;2023-07-31T00:09:15;14.80;99.90
8539;DHT22;4307;53.868;11.680;2023-07-31T00:11:41;14.80;99.90
8539;DHT22;4307;53.868;11.680;2023-07-31T00:14:08;14.80;99.90
8539;DHT22;4307;53.868;11.680;2023-07-31T00:16:35;14.80;99.90
8539;DHT22;4307;53.868;11.680;2023-07-31T00:19:01;14.80;99.90
8539;DHT22;4307;53.868;11.680;2023-07-31T00:21:28;14.80;99.90
8539;DHT22;4307;53.868;11.680;2023-07-31T00:23:56;14.90;99.90
8539;DHT22;4307;53.868;11.680;2023-07-31T00:26:23;14.80;99.90
8539;DHT22;4307;53.868;11.680;2023-07-31T00:28:49;14.90;99.90
8539;DHT22;4307;53.868;11.680;2023-07-31T00:31:16;14.90;99.90
8539;DHT22;4307;53.868;11.680;2023-07-31T00:33:42;14.90;99.90
8539;DHT22;4307;53.868;11.680;2023-07-31T00:36:09;14.90;99.90
8539;DHT22;4307;53.868;11.680;2023-07-31T00:38:36;14.90;99.90
8539;DHT22;4307;53.868;11.680;2023-07-31T00:41:04;14.90;99.90
8539;DHT22;4307;53.868;11.680;2023-07-31T00:43:30;14.90;99.90
8539;DHT22;4307;53.868;11.680;2023-07-31T00:45:57;15.00;99.90
8539;DHT22;4307;53.868;11.680;2023-07-31T00:48:24;15.00;99.90
8539;DHT22;4307;53.868;11.680;2023-07-31T00:50:51;15.00;99.90
8539;DHT22;4307;53.868;11.680;2023-07-31T00:53:18;15.00;99.90
8539;DHT22;4307;53.868;11.680;2023-07-31T00:55:45;15.00;99.90
8539;DHT22;4307;53.868;11.680;2023-07-31T00:58:13;15.00;99.90
8539;DHT22;4307;53.868;11.680;2023-07-31T01:00:40;15.00;99.90
8539;DHT22;4307;53.868;11.680;2023-07-31T01:03:06;15.00;99.90
8539;DHT22;4307;53.868;11.680;2023-07-31T01:05:39;15.00;99.90
8539;DHT22;4307;53.868;11.680;2023-07-31T01:08:15;15.00;99.90
8539;DHT22;4307;53.868;11.680;2023-07-31T01:10:49;14.90;99.90
8539;DHT22;4307;53.868;11.680;2023-07-31T01:13:19;14.90;99.90
8539;DHT22;4307;53.868;11.680;2023-07-31T01:15:46;14.90;99.90
8539;DHT22;4307;53.868;11.680;2023-07-31T01:18:13;14.90;99.90
8539;DHT22;4307;53.868;11.680;2023-07-31T01:20:42;14.90;99.90
8539;DHT22;4307;53.868;11.680;2023-07-31T01:23:27;14.90;99.90
8539;DHT22;4307;53.868;11.680;2023-07-31T01:26:11;14.80;99.90
8539;DHT22;4307;53.868;11.680;2023-07-31T01:28:46;14.80;99.90
8539;DHT22;4307;53.868;11.680;2023-07-31T01:31:21;14.80;99.90
8539;DHT22;4307;53.868;11.680;2023-07-31T01:33:50;14.80;99.90
8539;DHT22;4307;53.868;11.680;2023-07-31T01:36:19;14.80;99.90
8539;DHT22;4307;53.868;11.680;2023-07-31T01:38:45;14.80;99.90
8539;DHT22;4307;53.868;11.680;2023-07-31T01:41:16;14.80;99.90
8539;DHT22;4307;53.868;11.680;2023-07-31T01:43:42;14.80;99.90
8539;DHT22;4307;53.868;11.680;2023-07-31T01:46:09;14.80;99.90
8539;DHT22;4307;53.868;11.680;2023-07-31T01:48:35;14.80;99.90
8539;DHT22;4307;53.868;11.680;2023-07-31T01:51:02;14.80;99.90
8539;DHT22;4307;53.868;11.680;2023-07-31T01:53:30;14.80;99.90
8539;DHT22;4307;53.868;11.680;2023-07-31T01:55:57;14.80;99.90
8539;DHT22;4307;53.868;11.680;2023-07-31T01:58:25;14.80;99.90
8539;DHT22;4307;53.868;11.680;2023-07-31T02:00:52;14.80;99.90
8539;DHT22;4307;53.868;11.680;2023-07-31T02:03:18;14.80;99.90
8539;DHT22;4307;53.868;11.680;2023-07-31T02:05:45;14.80;99.90
8539;DHT22;4307;53.868;11.680;2023-07-31T02:08:12;14.80;99.90
8539;DHT22;4307;53.868;11.680;2023-07-31T02:10:39;14.80;99.90
8539;DHT22;4307;53.868;11.680;2023-07-31T02:13:05;14.80;99.90
8539;DHT22;4307;53.868;11.680;2023-07-31T02:15:34;14.80;99.90
8539;DHT22;4307;53.868;11.680;2023-07-31T02:18:00;14.80;99.90
8539;DHT22;4307;53.868;11.680;2023-07-31T02:20:27;14.80;99.90
8539;DHT22;4307;53.868;11.680;2023-07-31T02:22:54;14.80;99.90
8539;DHT22;4307;53.868;11.680;2023-07-31T02:25:20;14.80;99.90
8539;DHT22;4307;53.868;11.680;2023-07-31T02:27:47;14.70;99.90
8539;DHT22;4307;53.868;11.680;2023-07-31T02:30:14;14.70;99.90
8539;DHT22;4307;53.868;11.680;2023-07-31T02:32:42;14.70;99.90
8539;DHT22;4307;53.868;11.680;2023-07-31T02:35:08;14.70;99.90
8539;DHT22;4307;53.868;11.680;2023-07-31T02:37:35;14.60;99.90
8539;DHT22;4307;53.868;11.680;2023-07-31T02:40:04;14.70;99.90
8539;DHT22;4307;53.868;11.680;2023-07-31T02:42:31;14.60;99.90
8539;DHT22;4307;53.868;11.680;2023-07-31T02:44:57;14.70;99.90
8539;DHT22;4307;53.868;11.680;2023-07-31T02:47:24;14.70;99.90
8539;DHT22;4307;53.868;11.680;2023-07-31T02:49:52;14.70;99.90
8539;DHT22;4307;53.868;11.680;2023-07-31T02:52:19;14.70;99.90
8539;DHT22;4307;53.868;11.680;2023-07-31T02:54:45;14.70;99.90
8539;DHT22;4307;53.868;11.680;2023-07-31T02:57:12;14.70;99.90
8539;DHT22;4307;53.868;11.680;2023-07-31T02:59:39;14.70;99.90
8539;DHT22;4307;53.868;11.680;2023-07-31T03:02:05;14.70;99.90
8539;DHT22;4307;53.868;11.680;2023-07-31T03:04:32;14.70;99.90
8539;DHT22;4307;53.868;11.680;2023-07-31T03:07:00;14.70;99.90
8539;DHT22;4307;53.868;11.680;2023-07-31T03:09:27;14.70;99.90
8539;DHT22;4307;53.868;11.680;2023-07-31T03:11:53;14.70;99.90
8539;DHT22;4307;53.868;11.680;2023-07-31T03:14:20;14.80;99.90
8539;DHT22;4307;53.868;11.680;2023-07-31T03:16:47;14.80;99.90
8539;DHT22;4307;53.868;11.680;2023-07-31T03:19:13;14.80;99.90
8539;DHT22;4307;53.868;11.680;2023-07-31T03:21:40;14.80;99.90
8539;DHT22;4307;53.868;11.680;2023-07-31T03:24:08;14.90;99.90
8539;DHT22;4307;53.868;11.680;2023-07-31T03:26:37;14.90;99.90
8539;DHT22;4307;53.868;11.680;2023-07-31T03:29:06;14.90;99.90
8539;DHT22;4307;53.868;11.680;2023-07-31T03:31:33;14.90;99.90
8539;DHT22;4307;53.868;11.680;2023-07-31T03:34:00;15.00;99.90
8539;DHT22;4307;53.868;11.680;2023-07-31T03:36:27;15.00;99.90
8539;DHT22;4307;53.868;11.680;2023-07-31T03:38:53;15.00;99.90
8539;DHT22;4307;53.868;11.680;2023-07-31T03:41:21;15.00;99.90
8539;DHT22;4307;53.868;11.680;2023-07-31T03:43:50;15.00;99.90
8539;DHT22;4307;53.868;11.680;2023-07-31T03:46:17;15.10;99.90
8539;DHT22;4307;53.868;11.680;2023-07-31T03:48:44;15.10;99.90
8539;DHT22;4307;53.868;11.680;2023-07-31T03:51:11;15.10;99.90
8539;DHT22;4307;53.868;11.680;2023-07-31T03:53:37;15.10;99.90
8539;DHT22;4307;53.868;11.680;2023-07-31T03:56:04;15.20;99.90
8539;DHT22;4307;53.868;11.680;2023-07-31T03:58:32;15.20;99.90
8539;DHT22;4307;53.868;11.680;2023-07-31T04:01:00;15.20;99.90
8539;DHT22;4307;53.868;11.680;2023-07-31T04:03:27;15.20;99.90
8539;DHT22;4307;53.868;11.680;2023-07-31T04:05:54;15.30;99.90
8539;DHT22;4307;53.868;11.680;2023-07-31T04:08:21;15.30;99.90
8539;DHT22;4307;53.868;11.680;2023-07-31T04:10:48;15.30;99.90
8539;DHT22;4307;53.868;11.680;2023-07-31T04:13:15;15.30;99.90
8539;DHT22;4307;53.868;11.680;2023-07-31T04:15:48;15.40;99.90
8539;DHT22;4307;53.868;11.680;2023-07-31T04:18:15;15.40;99.90
8539;DHT22;4307;53.868;11.680;2023-07-31T04:20:41;15.40;99.90
8539;DHT22;4307;53.868;11.680;2023-07-31T04:23:08;15.40;99.90
8539;DHT22;4307;53.868;11.680;2023-07-31T04:25:35;15.40;99.90
8539;DHT22;4307;53.868;11.680;2023-07-31T04:28:01;15.40;99.90
8539;DHT22;4307;53.868;11.680;2023-07-31T04:30:28;15.40;99.90
8539;DHT22;4307;53.868;11.680;2023-07-31T04:32:56;15.50;99.90
8539;DHT22;4307;53.868;11.680;2023-07-31T04:35:23;15.50;99.90
8539;DHT22;4307;53.868;11.680;2023-07-31T04:37:49;15.50;99.90
8539;DHT22;4307;53.868;11.680;2023-07-31T04:40:16;15.50;99.90
8539;DHT22;4307;53.868;11.680;2023-07-31T04:42:43;15.60;99.90
8539;DHT22;4307;53.868;11.680;2023-07-31T04:45:10;15.60;99.90
8539;DHT22;4307;53.868;11.680;2023-07-31T04:47:36;15.60;99.90
8539;DHT22;4307;53.868;11.680;2023-07-31T04:50:05;15.70;99.90
8539;DHT22;4307;53.868;11.680;2023-07-31T04:52:32;15.70;99.90
8539;DHT22;4307;53.868;11.680;2023-07-31T04:54:59;15.70;99.90
8539;DHT22;4307;53.868;11.680;2023-07-31T04:57:25;15.70;99.90
8539;DHT22;4307;53.868;11.680;2023-07-31T04:59:52;15.80;99.90
8539;DHT22;4307;53.868;11.680;2023-07-31T05:02:19;15.80;99.90
8539;DHT22;4307;53.868;11.680;2023-07-31T05:04:45;15.90;99.90
8539;DHT22;4307;53.868;11.680;2023-07-31T05:07:13;15.90;99.90
8539;DHT22;4307;53.868;11.680;2023-07-31T05:09:40;16.00;99.90
8539;DHT22;4307;53.868;11.680;2023-07-31T05:12:08;16.00;99.90
8539;DHT22;4307;53.868;11.680;2023-07-31T05:14:34;16.00;99.90
8539;DHT22;4307;53.868;11.680;2023-07-31T05:17:01;16.10;99.90
8539;DHT22;4307;53.868;11.680;2023-07-31T05:19:28;16.10;99.90
8539;DHT22;4307;53.868;11.680;2023-07-31T05:21:54;16.10;99.90
8539;DHT22;4307;53.868;11.680;2023-07-31T05:24:22;16.10;99.90
8539;DHT22;4307;53.868;11.680;2023-07-31T05:26:49;16.10;99.90
8539;DHT22;4307;53.868;11.680;2023-07-31T05:29:16;16.20;99.90
8539;DHT22;4307;53.868;11.680;2023-07-31T05:31:43;16.20;99.90
8539;DHT22;4307;53.868;11.680;2023-07-31T05:34:09;16.20;99.90
8539;DHT22;4307;53.868;11.680;2023-07-31T05:36:36;16.20;99.90
8539;DHT22;4307;53.868;11.680;2023-07-31T05:39:02;16.20;99.90
8539;DHT22;4307;53.868;11.680;2023-07-31T05:41:34;16.30;99.90
8539;DHT22;4307;53.868;11.680;2023-07-31T05:44:01;16.40;99.90
8539;DHT22;4307;53.868;11.680;2023-07-31T05:46:30;16.40;99.90
8539;DHT22;4307;53.868;11.680;2023-07-31T05:48:57;16.40;99.90
8539;DHT22;4307;53.868;11.680;2023-07-31T05:51:26;16.40;99.90
8539;DHT22;4307;53.868;11.680;2023-07-31T05:53:52;16.50;99.90
8539;DHT22;4307;53.868;11.680;2023-07-31T05:56:19;16.50;99.90
8539;DHT22;4307;53.868;11.680;2023-07-31T05:58:47;16.50;99.90
8539;DHT22;4307;53.868;11.680;2023-07-31T06:01:15;16.50;99.90
8539;DHT22;4307;53.868;11.680;2023-07-31T06:03:42;16.60;99.90
8539;DHT22;4307;53.868;11.680;2023-07-31T06:06:09;16.60;99.90
8539;DHT22;4307;53.868;11.680;2023-07-31T06:08:36;16.60;99.90
8539;DHT22;4307;53.868;11.680;2023-07-31T06:11:03;16.60;99.90
8539;DHT22;4307;53.868;11.680;2023-07-31T06:13:29;16.60;99.90
8539;DHT22;4307;53.868;11.680;2023-07-31T06:15:57;16.70;99.90
8539;DHT22;4307;53.868;11.680;2023-07-31T06:18:24;16.70;99.90
8539;DHT22;4307;53.868;11.680;2023-07-31T06:20:51;16.70;99.90
8539;DHT22;4307;53.868;11.680;2023-07-31T06:23:19;16.60;99.90
8539;DHT22;4307;53.868;11.680;2023-07-31T06:25:46;16.70;99.90
8539;DHT22;4307;53.868;11.680;2023-07-31T06:28:12;16.70;99.90
8539;DHT22;4307;53.868;11.680;2023-07-31T06:30:39;16.70;99.90
8539;DHT22;4307;53.868;11.680;2023-07-31T06:33:07;16.70;99.90
8539;DHT22;4307;53.868;11.680;2023-07-31T06:35:34;16.80;99.90
8539;DHT22;4307;53.868;11.680;2023-07-31T06:38:01;16.80;99.90
8539;DHT22;4307;53.868;11.680;2023-07-31T06:40:28;16.80;99.90
8539;DHT22;4307;53.868;11.680;2023-07-31T06:42:54;16.80;99.90
8539;DHT22;4307;53.868;11.680;2023-07-31T06:45:21;16.90;99.90
8539;DHT22;4307;53.868;11.680;2023-07-31T06:47:48;17.00;99.90
8539;DHT22;4307;53.868;11.680;2023-07-31T06:50:16;17.00;99.90
8539;DHT22;4307;53.868;11.680;2023-07-31T06:52:43;17.00;99.90
8539;DHT22;4307;53.868;11.680;2023-07-31T06:55:17;17.00;99.90
8539;DHT22;4307;53.868;11.680;2023-07-31T06:57:45;17.10;99.90
8539;DHT22;4307;53.868;11.680;2023-07-31T07:00:12;17.10;99.90
8539;DHT22;4307;53.868;11.680;2023-07-31T07:02:39;17.10;99.90
8539;DHT22;4307;53.868;11.680;2023-07-31T07:05:06;17.20;99.90
8539;DHT22;4307;53.868;11.680;2023-07-31T07:07:35;17.20;99.90
8539;DHT22;4307;53.868;11.680;2023-07-31T07:10:02;17.20;99.90
8539;DHT22;4307;53.868;11.680;2023-07-31T07:12:31;17.10;99.90
8539;DHT22;4307;53.868;11.680;2023-07-31T07:14:59;17.10;99.90
8539;DHT22;4307;53.868;11.680;2023-07-31T07:17:28;17.10;99.90
8539;DHT22;4307;53.868;11.680;2023-07-31T07:19:56;17.20;99.90
8539;DHT22;4307;53.868;11.680;2023-07-31T07:22:23;17.20;99.90
8539;DHT22;4307;53.868;11.680;2023-07-31T07:24:51;17.20;99.90
8539;DHT22;4307;53.868;11.680;2023-07-31T07:27:18;17.20;99.90
8539;DHT22;4307;53.868;11.680;2023-07-31T07:29:45;17.20;99.90
8539;DHT22;4307;53.868;11.680;2023-07-31T07:32:12;17.10;99.90
8539;DHT22;4307;53.868;11.680;2023-07-31T07:34:39;17.10;99.90
8539;DHT22;4307;53.868;11.680;2023-07-31T07:37:06;17.10;99.90
8539;DHT22;4307;53.868;11.680;2023-07-31T07:39:32;17.10;99.90
8539;DHT22;4307;53.868;11.680;2023-07-31T07:42:00;17.20;99.90
8539;DHT22;4307;53.868;11.680;2023-07-31T07:44:27;17.30;99.90
8539;DHT22;4307;53.868;11.680;2023-07-31T07:46:53;17.30;99.90
8539;DHT22;4307;53.868;11.680;2023-07-31T07:49:20;17.30;99.90
8539;DHT22;4307;53.868;11.680;2023-07-31T07:51:48;17.40;99.90
8539;DHT22;4307;53.868;11.680;2023-07-31T07:54:14;17.30;99.90
8539;DHT22;4307;53.868;11.680;2023-07-31T07:56:42;17.40;99.90
8539;DHT22;4307;53.868;11.680;2023-07-31T07:59:10;17.40;99.90
8539;DHT22;4307;53.868;11.680;2023-07-31T08:01:37;17.40;99.90
8539;DHT22;4307;53.868;11.680;2023-07-31T08:04:03;17.40;99.90
8539;DHT22;4307;53.868;11.680;2023-07-31T08:06:30;17.40;99.90
8539;DHT22;4307;53.868;11.680;2023-07-31T08:08:57;17.40;99.90
8539;DHT22;4307;53.868;11.680;2023-07-31T08:11:23;17.30;99.90
8539;DHT22;4307;53.868;11.680;2023-07-31T08:13:50;17.30;99.90
8539;DHT22;4307;53.868;11.680;2023-07-31T08:16:18;17.30;99.90
8539;DHT22;4307;53.868;11.680;2023-07-31T08:18:44;17.30;99.90
8539;DHT22;4307;53.868;11.680;2023-07-31T08:21:11;17.30;99.90
8539;DHT22;4307;53.868;11.680;2023-07-31T08:23:38;17.30;99.90
8539;DHT22;4307;53.868;11.680;2023-07-31T08:26:04;17.20;99.90
8539;DHT22;4307;53.868;11.680;2023-07-31T08:28:31;17.20;99.90
8539;DHT22;4307;53.868;11.680;2023-07-31T08:30:58;17.10;99.90
8539;DHT22;4307;53.868;11.680;2023-07-31T08:33:26;17.10;99.90
8539;DHT22;4307;53.868;11.680;2023-07-31T08:35:53;17.10;99.90
8539;DHT22;4307;53.868;11.680;2023-07-31T08:38:19;17.10;99.90
8539;DHT22;4307;53.868;11.680;2023-07-31T08:40:46;17.10;99.90
8539;DHT22;4307;53.868;11.680;2023-07-31T08:43:13;17.00;99.90
8539;DHT22;4307;53.868;11.680;2023-07-31T08:45:42;16.90;99.90
8539;DHT22;4307;53.868;11.680;2023-07-31T08:48:09;16.90;99.90
8539;DHT22;4307;53.868;11.680;2023-07-31T08:50:38;16.90;99.90
8539;DHT22;4307;53.868;11.680;2023-07-31T08:53:05;16.80;99.90
8539;DHT22;4307;53.868;11.680;2023-07-31T08:55:32;16.80;99.90
8539;DHT22;4307;53.868;11.680;2023-07-31T08:58:01;16.80;99.90
8539;DHT22;4307;53.868;11.680;2023-07-31T09:00:29;16.80;99.90
8539;DHT22;4307;53.868;11.680;2023-07-31T09:03:00;16.90;99.90
8539;DHT22;4307;53.868;11.680;2023-07-31T09:05:30;16.80;99.90
8539;DHT22;4307;53.868;11.680;2023-07-31T09:07:58;16.80;99.90
8539;DHT22;4307;53.868;11.680;2023-07-31T09:10:25;16.90;99.90
8539;DHT22;4307;53.868;11.680;2023-07-31T09:12:52;16.90;99.90
8539;DHT22;4307;53.868;11.680;2023-07-31T09:15:19;17.00;99.90
8539;DHT22;4307;53.868;11.680;2023-07-31T09:17:46;17.10;99.90
8539;DHT22;4307;53.868;11.680;2023-07-31T09:20:14;17.10;99.90
8539;DHT22;4307;53.868;11.680;2023-07-31T09:22:42;17.10;99.90
8539;DHT22;4307;53.868;11.680;2023-07-31T09:25:17;17.20;99.90
8539;DHT22;4307;53.868;11.680;2023-07-31T09:27:48;17.20;99.90
8539;DHT22;4307;53.868;11.680;2023-07-31T09:30:16;17.20;99.90
8539;DHT22;4307;53.868;11.680;2023-07-31T09:32:43;17.30;99.90
8539;DHT22;4307;53.868;11.680;2023-07-31T09:35:21;17.30;99.90
8539;DHT22;4307;53.868;11.680;2023-07-31T09:37:49;17.30;99.90
8539;DHT22;4307;53.868;11.680;2023-07-31T09:40:28;17.40;99.90
8539;DHT22;4307;53.868;11.680;2023-07-31T09:42:58;17.40;99.90
8539;DHT22;4307;53.868;11.680;2023-07-31T09:45:26;17.50;99.90
8539;DHT22;4307;53.868;11.680;2023-07-31T09:47:53;17.50;99.90
8539;DHT22;4307;53.868;11.680;2023-07-31T09:50:21;17.60;99.90
8539;DHT22;4307;53.868;11.680;2023-07-31T09:52:48;17.60;99.90
8539;DHT22;4307;53.868;11.680;2023-07-31T09:55:15;17.70;99.90
8539;DHT22;4307;53.868;11.680;2023-07-31T09:57:45;17.70;99.90
8539;DHT22;4307;53.868;11.680;2023-07-31T10:00:13;17.70;99.90
8539;DHT22;4307;53.868;11.680;2023-07-31T10:02:41;17.80;99.90
8539;DHT22;4307;53.868;11.680;2023-07-31T10:05:08;17.90;99.90
8539;DHT22;4307;53.868;11.680;2023-07-31T10:07:37;18.00;99.90
8539;DHT22;4307;53.868;11.680;2023-07-31T10:10:06;18.10;99.90
8539;DHT22;4307;53.868;11.680;2023-07-31T10:12:34;18.10;99.90
8539;DHT22;4307;53.868;11.680;2023-07-31T10:15:03;18.20;99.90
8539;DHT22;4307;53.868;11.680;2023-07-31T10:17:30;18.30;99.90
8539;DHT22;4307;53.868;11.680;2023-07-31T10:19:58;18.40;99.90
8539;DHT22;4307;53.868;11.680;2023-07-31T10:22:26;18.40;99.90
8539;DHT22;4307;53.868;11.680;2023-07-31T10:24:54;18.40;99.90
8539;DHT22;4307;53.868;11.680;2023-07-31T10:27:23;18.50;99.90
8539;DHT22;4307;53.868;11.680;2023-07-31T10:29:52;18.50;99.90
8539;DHT22;4307;53.868;11.680;2023-07-31T10:32:20;18.50;99.90
8539;DHT22;4307;53.868;11.680;2023-07-31T10:34:48;18.60;99.90
8539;DHT22;4307;53.868;11.680;2023-07-31T10:37:23;18.50;99.90
8539;DHT22;4307;53.868;11.680;2023-07-31T10:40:00;18.40;99.90
8539;DHT22;4307;53.868;11.680;2023-07-31T10:42:29;18.30;99.90
8539;DHT22;4307;53.868;11.680;2023-07-31T10:44:58;18.20;99.90
8539;DHT22;4307;53.868;11.680;2023-07-31T10:47:27;18.10;99.90
8539;DHT22;4307;53.868;11.680;2023-07-31T10:50:11;18.10;99.90
8539;DHT22;4307;53.868;11.680;2023-07-31T10:52:38;18.00;99.90
8539;DHT22;4307;53.868;11.680;2023-07-31T10:55:29;17.90;99.90
8539;DHT22;4307;53.868;11.680;2023-07-31T10:57:57;17.80;99.90
8539;DHT22;4307;53.868;11.680;2023-07-31T11:00:26;17.60;99.90
8539;DHT22;4307;53.868;11.680;2023-07-31T11:03:02;17.40;99.90
8539;DHT22;4307;53.868;11.680;2023-07-31T11:05:49;17.30;99.90
8539;DHT22;4307;53.868;11.680;2023-07-31T11:08:17;17.20;99.90
8539;DHT22;4307;53.868;11.680;2023-07-31T11:10:46;17.20;99.90
8539;DHT22;4307;53.868;11.680;2023-07-31T11:13:13;17.30;99.90
8539;DHT22;4307;53.868;11.680;2023-07-31T11:15:40;17.30;99.90
8539;DHT22;4307;53.868;11.680;2023-07-31T11:18:08;17.40;99.90
8539;DHT22;4307;53.868;11.680;2023-07-31T11:20:37;17.40;99.90
8539;DHT22;4307;53.868;11.680;2023-07-31T11:23:07;17.50;99.90
8539;DHT22;4307;53.868;11.680;2023-07-31T11:25:35;17.50;99.90
8539;DHT22;4307;53.868;11.680;2023-07-31T11:28:06;17.50;99.90
8539;DHT22;4307;53.868;11.680;2023-07-31T11:30:33;17.50;99.90
8539;DHT22;4307;53.868;11.680;2023-07-31T11:33:02;17.50;99.90
8539;DHT22;4307;53.868;11.680;2023-07-31T11:35:31;17.50;99.90
8539;DHT22;4307;53.868;11.680;2023-07-31T11:37:58;17.50;99.90
8539;DHT22;4307;53.868;11.680;2023-07-31T11:40:24;17.50;99.90
8539;DHT22;4307;53.868;11.680;2023-07-31T11:42:55;17.40;99.90
8539;DHT22;4307;53.868;11.680;2023-07-31T11:45:25;17.40;99.90
8539;DHT22;4307;53.868;11.680;2023-07-31T11:47:52;17.40;99.90
8539;DHT22;4307;53.868;11.680;2023-07-31T11:50:18;17.40;99.90
8539;DHT22;4307;53.868;11.680;2023-07-31T11:52:48;17.40;99.90
8539;DHT22;4307;53.868;11.680;2023-07-31T11:55:16;17.40;99.90
8539;DHT22;4307;53.868;11.680;2023-07-31T11:57:43;17.40;99.90
8539;DHT22;4307;53.868;11.680;2023-07-31T12:00:13;17.50;99.90
8539;DHT22;4307;53.868;11.680;2023-07-31T12:02:40;17.50;99.90
8539;DHT22;4307;53.868;11.680;2023-07-31T12:05:10;17.50;99.90
8539;DHT22;4307;53.868;11.680;2023-07-31T12:07:49;17.40;99.90
8539;DHT22;4307;53.868;11.680;2023-07-31T12:10:24;17.30;99.90
8539;DHT22;4307;53.868;11.680;2023-07-31T12:12:58;17.20;99.90
8539;DHT22;4307;53.868;11.680;2023-07-31T12:15:39;17.20;99.90
8539;DHT22;4307;53.868;11.680;2023-07-31T12:18:07;17.20;99.90
8539;DHT22;4307;53.868;11.680;2023-07-31T12:20:35;17.20;99.90
8539;DHT22;4307;53.868;11.680;2023-07-31T12:23:03;17.20;99.90
8539;DHT22;4307;53.868;11.680;2023-07-31T12:25:32;17.20;99.90
8539;DHT22;4307;53.868;11.680;2023-07-31T12:28:04;17.20;99.90
8539;DHT22;4307;53.868;11.680;2023-07-31T12:30:32;17.10;99.90
8539;DHT22;4307;53.868;11.680;2023-07-31T12:33:03;17.10;99.90
8539;DHT22;4307;53.868;11.680;2023-07-31T12:35:35;17.10;99.90
8539;DHT22;4307;53.868;11.680;2023-07-31T12:38:03;17.20;99.90
8539;DHT22;4307;53.868;11.680;2023-07-31T12:40:30;17.10;99.90
8539;DHT22;4307;53.868;11.680;2023-07-31T12:42:57;17.10;99.90
8539;DHT22;4307;53.868;11.680;2023-07-31T12:45:23;17.10;99.90
8539;DHT22;4307;53.868;11.680;2023-07-31T12:47:50;17.10;99.90
8539;DHT22;4307;53.868;11.680;2023-07-31T12:50:17;17.10;99.90
8539;DHT22;4307;53.868;11.680;2023-07-31T12:52:43;17.10;99.90
8539;DHT22;4307;53.868;11.680;2023-07-31T12:55:12;17.10;99.90
8539;DHT22;4307;53.868;11.680;2023-07-31T12:57:39;17.10;99.90
8539;DHT22;4307;53.868;11.680;2023-07-31T13:00:08;17.10;99.90
8539;DHT22;4307;53.868;11.680;2023-07-31T13:02:34;17.10;99.90
8539;DHT22;4307;53.868;11.680;2023-07-31T13:05:01;17.10;99.90
8539;DHT22;4307;53.868;11.680;2023-07-31T13:07:28;17.20;99.90
8539;DHT22;4307;53.868;11.680;2023-07-31T13:09:54;17.20;99.90
8539;DHT22;4307;53.868;11.680;2023-07-31T13:12:22;17.10;99.90
8539;DHT22;4307;53.868;11.680;2023-07-31T13:14:51;17.10;99.90
8539;DHT22;4307;53.868;11.680;2023-07-31T13:17:17;17.00;99.90
8539;DHT22;4307;53.868;11.680;2023-07-31T13:19:44;16.90;99.90
8539;DHT22;4307;53.868;11.680;2023-07-31T13:22:11;16.90;99.90
8539;DHT22;4307;53.868;11.680;2023-07-31T13:24:37;16.90;99.90
8539;DHT22;4307;53.868;11.680;2023-07-31T13:27:04;17.00;99.90
8539;DHT22;4307;53.868;11.680;2023-07-31T13:29:32;17.10;99.90
8539;DHT22;4307;53.868;11.680;2023-07-31T13:31:59;17.10;99.90
8539;DHT22;4307;53.868;11.680;2023-07-31T13:34:25;17.20;99.90
8539;DHT22;4307;53.868;11.680;2023-07-31T13:36:54;17.30;99.90
8539;DHT22;4307;53.868;11.680;2023-07-31T13:39:21;17.30;99.90
8539;DHT22;4307;53.868;11.680;2023-07-31T13:41:48;17.30;99.90
8539;DHT22;4307;53.868;11.680;2023-07-31T13:44:14;17.40;99.90
8539;DHT22;4307;53.868;11.680;2023-07-31T13:46:42;17.40;99.90
8539;DHT22;4307;53.868;11.680;2023-07-31T13:49:09;17.50;99.90
8539;DHT22;4307;53.868;11.680;2023-07-31T13:51:36;17.50;99.90
8539;DHT22;4307;53.868;11.680;2023-07-31T13:54:04;17.50;99.90
8539;DHT22;4307;53.868;11.680;2023-07-31T13:56:32;17.50;99.90
8539;DHT22;4307;53.868;11.680;2023-07-31T13:58:59;17.50;99.90
8539;DHT22;4307;53.868;11.680;2023-07-31T14:01:26;17.50;99.90
8539;DHT22;4307;53.868;11.680;2023-07-31T14:03:54;17.50;99.90
8539;DHT22;4307;53.868;11.680;2023-07-31T14:06:21;17.50;99.90
8539;DHT22;4307;53.868;11.680;2023-07-31T14:08:48;17.40;99.90
8539;DHT22;4307;53.868;11.680;2023-07-31T14:11:14;17.40;99.90
8539;DHT22;4307;53.868;11.680;2023-07-31T14:13:41;17.40;99.90
8539;DHT22;4307;53.868;11.680;2023-07-31T14:16:08;17.30;99.90
8539;DHT22;4307;53.868;11.680;2023-07-31T14:18:34;17.30;99.90
8539;DHT22;4307;53.868;11.680;2023-07-31T14:21:03;17.30;99.90
8539;DHT22;4307;53.868;11.680;2023-07-31T14:23:29;17.30;99.90
8539;DHT22;4307;53.868;11.680;2023-07-31T14:25:56;17.40;99.90
8539;DHT22;4307;53.868;11.680;2023-07-31T14:28:22;17.40;99.90
8539;DHT22;4307;53.868;11.680;2023-07-31T14:30:49;17.30;99.90
8539;DHT22;4307;53.868;11.680;2023-07-31T14:33:16;17.30;99.90
8539;DHT22;4307;53.868;11.680;2023-07-31T14:35:43;17.30;99.90
8539;DHT22;4307;53.868;11.680;2023-07-31T14:38:11;17.30;99.90
8539;DHT22;4307;53.868;11.680;2023-07-31T14:40:38;17.30;99.90
8539;DHT22;4307;53.868;11.680;2023-07-31T14:43:05;17.20;99.90
8539;DHT22;4307;53.868;11.680;2023-07-31T14:45:31;17.10;99.90
8539;DHT22;4307;53.868;11.680;2023-07-31T14:47:58;17.10;99.90
8539;DHT22;4307;53.868;11.680;2023-07-31T14:50:25;17.10;99.90
8539;DHT22;4307;53.868;11.680;2023-07-31T14:52:52;17.10;99.90
8539;DHT22;4307;53.868;11.680;2023-07-31T14:55:20;17.10;99.90
8539;DHT22;4307;53.868;11.680;2023-07-31T14:57:47;17.00;99.90
8539;DHT22;4307;53.868;11.680;2023-07-31T15:00:14;16.90;99.90
8539;DHT22;4307;53.868;11.680;2023-07-31T15:02:41;16.80;99.90
8539;DHT22;4307;53.868;11.680;2023-07-31T15:05:08;16.70;99.90
8539;DHT22;4307;53.868;11.680;2023-07-31T15:07:35;16.60;99.90
8539;DHT22;4307;53.868;11.680;2023-07-31T15:10:02;16.50;99.90
8539;DHT22;4307;53.868;11.680;2023-07-31T15:12:30;16.40;99.90
8539;DHT22;4307;53.868;11.680;2023-07-31T15:14:57;16.40;99.90
8539;DHT22;4307;53.868;11.680;2023-07-31T15:17:23;16.40;99.90
8539;DHT22;4307;53.868;11.680;2023-07-31T15:19:50;16.50;99.90
8539;DHT22;4307;53.868;11.680;2023-07-31T15:22:17;16.50;99.90
8539;DHT22;4307;53.868;11.680;2023-07-31T15:24:43;16.50;99.90
8539;DHT22;4307;53.868;11.680;2023-07-31T15:27:10;16.50;99.90
8539;DHT22;4307;53.868;11.680;2023-07-31T15:29:38;16.50;99.90
8539;DHT22;4307;53.868;11.680;2023-07-31T15:32:05;16.40;99.90
8539;DHT22;4307;53.868;11.680;2023-07-31T15:34:32;16.40;99.90
8539;DHT22;4307;53.868;11.680;2023-07-31T15:36:59;16.40;99.90
8539;DHT22;4307;53.868;11.680;2023-07-31T15:39:26;16.40;99.90
8539;DHT22;4307;53.868;11.680;2023-07-31T15:41:52;16.40;99.90
8539;DHT22;4307;53.868;11.680;2023-07-31T15:44:19;16.30;99.90
8539;DHT22;4307;53.868;11.680;2023-07-31T15:46:48;16.30;99.90
8539;DHT22;4307;53.868;11.680;2023-07-31T15:49:15;16.30;99.90